sensor_id;sensor_type;location;lat;lon;timestamp;P1;durP1;ratioP1;P2;durP2;ratioP2
21546;SDS011;41275;51.912;4.388;2023-07-13T00:04:33;8.07;;;1.48;;
21546;SDS011;41275;51.912;4.388;2023-07-13T00:09:54;8.80;;;1.48;;
21546;SDS011;41275;51.912;4.388;2023-07-13T00:15:25;5.88;;;1.27;;
21546;SDS011;41275;51.912;4.388;2023-07-13T00:20:47;9.98;;;1.58;;
21546;SDS011;41275;51.912;4.388;2023-07-13T00:26:09;7.43;;;1.20;;
21546;SDS011;41275;51.912;4.388;2023-07-13T00:31:31;12.27;;;1.83;;
21546;SDS011;41275;51.912;4.388;2023-07-13T00:36:52;11.80;;;1.90;;
21546;SDS011;41275;51.912;4.388;2023-07-13T00:42:14;8.67;;;1.70;;
21546;SDS011;41275;51.912;4.388;2023-07-13T00:47:36;7.50;;;1.70;;
21546;SDS011;41275;51.912;4.388;2023-07-13T00:52:57;8.80;;;1.65;;
21546;SDS011;41275;51.912;4.388;2023-07-13T00:58:19;10.55;;;1.33;;
21546;SDS011;41275;51.912;4.388;2023-07-13T01:03:40;10.25;;;1.55;;
21546;SDS011;41275;51.912;4.388;2023-07-13T01:09:02;6.38;;;0.98;;
21546;SDS011;41275;51.912;4.388;2023-07-13T01:14:23;7.93;;;1.20;;
21546;SDS011;41275;51.912;4.388;2023-07-13T01:19:45;4.53;;;0.93;;
21546;SDS011;41275;51.912;4.388;2023-07-13T01:25:06;6.85;;;1.15;;
21546;SDS011;41275;51.912;4.388;2023-07-13T01:30:29;2.63;;;0.70;;
21546;SDS011;41275;51.912;4.388;2023-07-13T01:35:50;3.22;;;0.50;;
21546;SDS011;41275;51.912;4.388;2023-07-13T01:41:11;3.10;;;0.40;;
21546;SDS011;41275;51.912;4.388;2023-07-13T01:46:33;2.37;;;0.50;;
21546;SDS011;41275;51.912;4.388;2023-07-13T01:51:54;4.63;;;0.75;;
21546;SDS011;41275;51.912;4.388;2023-07-13T01:57:15;6.67;;;1.07;;
21546;SDS011;41275;51.912;4.388;2023-07-13T02:02:36;4.55;;;1.00;;
21546;SDS011;41275;51.912;4.388;2023-07-13T02:07:58;12.83;;;1.30;;
21546;SDS011;41275;51.912;4.388;2023-07-13T02:13:19;8.23;;;1.47;;
21546;SDS011;41275;51.912;4.388;2023-07-13T02:18:41;8.77;;;1.30;;
21546;SDS011;41275;51.912;4.388;2023-07-13T02:24:02;11.80;;;2.00;;
21546;SDS011;41275;51.912;4.388;2023-07-13T02:29:25;9.50;;;1.75;;
21546;SDS011;41275;51.912;4.388;2023-07-13T02:34:46;10.80;;;1.83;;
21546;SDS011;41275;51.912;4.388;2023-07-13T02:40:08;10.18;;;1.75;;
21546;SDS011;41275;51.912;4.388;2023-07-13T02:45:29;9.30;;;1.20;;
21546;SDS011;41275;51.912;4.388;2023-07-13T02:50:50;10.83;;;2.23;;
21546;SDS011;41275;51.912;4.388;2023-07-13T02:56:12;9.73;;;1.83;;
21546;SDS011;41275;51.912;4.388;2023-07-13T03:01:33;11.93;;;1.90;;
21546;SDS011;41275;51.912;4.388;2023-07-13T03:06:56;10.90;;;1.60;;
21546;SDS011;41275;51.912;4.388;2023-07-13T03:12:18;11.33;;;1.67;;
21546;SDS011;41275;51.912;4.388;2023-07-13T03:17:40;7.32;;;1.40;;
21546;SDS011;41275;51.912;4.388;2023-07-13T03:23:01;9.17;;;1.93;;
21546;SDS011;41275;51.912;4.388;2023-07-13T03:28:23;9.57;;;1.50;;
21546;SDS011;41275;51.912;4.388;2023-07-13T03:33:45;12.27;;;1.65;;
21546;SDS011;41275;51.912;4.388;2023-07-13T03:39:06;9.77;;;1.50;;
21546;SDS011;41275;51.912;4.388;2023-07-13T03:44:29;13.20;;;2.17;;
21546;SDS011;41275;51.912;4.388;2023-07-13T03:49:50;9.20;;;1.83;;
21546;SDS011;41275;51.912;4.388;2023-07-13T03:55:11;9.40;;;1.70;;
21546;SDS011;41275;51.912;4.388;2023-07-13T04:00:32;7.57;;;1.50;;
21546;SDS011;41275;51.912;4.388;2023-07-13T04:05:54;8.15;;;1.50;;
21546;SDS011;41275;51.912;4.388;2023-07-13T04:11:21;5.45;;;1.70;;
21546;SDS011;41275;51.912;4.388;2023-07-13T04:16:44;8.25;;;1.38;;
21546;SDS011;41275;51.912;4.388;2023-07-13T04:22:06;7.78;;;1.20;;
21546;SDS011;41275;51.912;4.388;2023-07-13T04:27:27;9.67;;;1.60;;
21546;SDS011;41275;51.912;4.388;2023-07-13T04:32:50;5.40;;;1.40;;
21546;SDS011;41275;51.912;4.388;2023-07-13T04:38:13;8.02;;;1.30;;
21546;SDS011;41275;51.912;4.388;2023-07-13T04:43:35;6.73;;;1.33;;
21546;SDS011;41275;51.912;4.388;2023-07-13T04:48:57;3.47;;;1.03;;
21546;SDS011;41275;51.912;4.388;2023-07-13T04:54:19;4.50;;;1.27;;
21546;SDS011;41275;51.912;4.388;2023-07-13T04:59:40;6.53;;;1.30;;
21546;SDS011;41275;51.912;4.388;2023-07-13T05:05:01;5.07;;;1.60;;
21546;SDS011;41275;51.912;4.388;2023-07-13T05:10:24;10.57;;;2.17;;
21546;SDS011;41275;51.912;4.388;2023-07-13T05:15:46;8.63;;;1.92;;
21546;SDS011;41275;51.912;4.388;2023-07-13T05:21:15;7.28;;;1.45;;
21546;SDS011;41275;51.912;4.388;2023-07-13T05:26:37;5.77;;;1.67;;
21546;SDS011;41275;51.912;4.388;2023-07-13T05:31:58;11.75;;;1.88;;
21546;SDS011;41275;51.912;4.388;2023-07-13T05:37:19;11.37;;;1.73;;
21546;SDS011;41275;51.912;4.388;2023-07-13T05:42:40;9.70;;;1.60;;
21546;SDS011;41275;51.912;4.388;2023-07-13T05:48:01;8.48;;;1.50;;
21546;SDS011;41275;51.912;4.388;2023-07-13T05:53:23;7.57;;;1.48;;
21546;SDS011;41275;51.912;4.388;2023-07-13T05:58:44;6.70;;;1.20;;
21546;SDS011;41275;51.912;4.388;2023-07-13T06:04:05;4.78;;;1.30;;
21546;SDS011;41275;51.912;4.388;2023-07-13T06:09:27;7.00;;;1.67;;
21546;SDS011;41275;51.912;4.388;2023-07-13T06:14:48;4.63;;;1.30;;
21546;SDS011;41275;51.912;4.388;2023-07-13T06:20:09;5.13;;;1.15;;
21546;SDS011;41275;51.912;4.388;2023-07-13T06:25:30;6.78;;;1.58;;
21546;SDS011;41275;51.912;4.388;2023-07-13T06:30:52;6.30;;;1.20;;
21546;SDS011;41275;51.912;4.388;2023-07-13T06:36:13;5.38;;;1.20;;
21546;SDS011;41275;51.912;4.388;2023-07-13T06:41:34;6.50;;;1.70;;
21546;SDS011;41275;51.912;4.388;2023-07-13T06:46:55;3.97;;;1.30;;
21546;SDS011;41275;51.912;4.388;2023-07-13T06:52:17;3.63;;;1.17;;
21546;SDS011;41275;51.912;4.388;2023-07-13T06:57:38;3.63;;;1.20;;
21546;SDS011;41275;51.912;4.388;2023-07-13T07:02:59;4.65;;;1.33;;
21546;SDS011;41275;51.912;4.388;2023-07-13T07:08:20;9.00;;;1.50;;
21546;SDS011;41275;51.912;4.388;2023-07-13T07:13:41;4.57;;;1.30;;
21546;SDS011;41275;51.912;4.388;2023-07-13T07:19:03;7.80;;;1.70;;
21546;SDS011;41275;51.912;4.388;2023-07-13T07:24:24;6.07;;;1.57;;
21546;SDS011;41275;51.912;4.388;2023-07-13T07:29:45;3.30;;;1.13;;
21546;SDS011;41275;51.912;4.388;2023-07-13T07:35:07;4.87;;;1.13;;
21546;SDS011;41275;51.912;4.388;2023-07-13T07:40:28;4.97;;;1.60;;
21546;SDS011;41275;51.912;4.388;2023-07-13T07:45:49;8.20;;;1.77;;
21546;SDS011;41275;51.912;4.388;2023-07-13T07:51:11;4.50;;;1.40;;
21546;SDS011;41275;51.912;4.388;2023-07-13T07:56:32;3.60;;;1.40;;
21546;SDS011;41275;51.912;4.388;2023-07-13T08:01:53;4.63;;;1.02;;
21546;SDS011;41275;51.912;4.388;2023-07-13T08:07:15;3.83;;;1.07;;
21546;SDS011;41275;51.912;4.388;2023-07-13T08:12:36;4.13;;;1.40;;
21546;SDS011;41275;51.912;4.388;2023-07-13T08:17:59;5.07;;;1.55;;
21546;SDS011;41275;51.912;4.388;2023-07-13T08:23:20;5.90;;;1.48;;
21546;SDS011;41275;51.912;4.388;2023-07-13T08:28:41;5.27;;;1.20;;
21546;SDS011;41275;51.912;4.388;2023-07-13T08:34:02;6.90;;;1.25;;
21546;SDS011;41275;51.912;4.388;2023-07-13T08:39:24;8.27;;;1.60;;
21546;SDS011;41275;51.912;4.388;2023-07-13T08:50:27;4.03;;;1.35;;
21546;SDS011;41275;51.912;4.388;2023-07-13T08:55:57;6.88;;;1.73;;
21546;SDS011;41275;51.912;4.388;2023-07-13T09:01:24;7.88;;;1.63;;
21546;SDS011;41275;51.912;4.388;2023-07-13T09:18:02;6.15;;;1.50;;
21546;SDS011;41275;51.912;4.388;2023-07-13T09:23:45;5.80;;;1.75;;
21546;SDS011;41275;51.912;4.388;2023-07-13T09:29:11;7.85;;;2.08;;
21546;SDS011;41275;51.912;4.388;2023-07-13T09:34:37;8.10;;;1.90;;
21546;SDS011;41275;51.912;4.388;2023-07-13T09:39:59;5.97;;;2.00;;
21546;SDS011;41275;51.912;4.388;2023-07-13T09:45:29;7.03;;;2.03;;
21546;SDS011;41275;51.912;4.388;2023-07-13T09:50:54;5.63;;;1.43;;
21546;SDS011;41275;51.912;4.388;2023-07-13T09:56:26;6.88;;;1.90;;
21546;SDS011;41275;51.912;4.388;2023-07-13T10:01:49;8.52;;;2.10;;
21546;SDS011;41275;51.912;4.388;2023-07-13T10:07:12;6.13;;;1.65;;
21546;SDS011;41275;51.912;4.388;2023-07-13T10:12:35;5.13;;;1.60;;
21546;SDS011;41275;51.912;4.388;2023-07-13T10:17:58;4.22;;;1.73;;
21546;SDS011;41275;51.912;4.388;2023-07-13T10:23:20;4.45;;;1.42;;
21546;SDS011;41275;51.912;4.388;2023-07-13T10:28:49;3.10;;;1.30;;
21546;SDS011;41275;51.912;4.388;2023-07-13T10:34:14;5.90;;;1.45;;
21546;SDS011;41275;51.912;4.388;2023-07-13T10:39:35;3.70;;;1.45;;
21546;SDS011;41275;51.912;4.388;2023-07-13T10:44:58;3.13;;;1.17;;
21546;SDS011;41275;51.912;4.388;2023-07-13T10:50:20;4.25;;;1.10;;
21546;SDS011;41275;51.912;4.388;2023-07-13T11:01:15;4.00;;;1.10;;
21546;SDS011;41275;51.912;4.388;2023-07-13T11:06:38;2.63;;;1.17;;
21546;SDS011;41275;51.912;4.388;2023-07-13T11:12:08;3.72;;;1.20;;
21546;SDS011;41275;51.912;4.388;2023-07-13T11:17:33;3.03;;;1.00;;
21546;SDS011;41275;51.912;4.388;2023-07-13T11:23:07;2.53;;;0.90;;
21546;SDS011;41275;51.912;4.388;2023-07-13T11:28:31;3.83;;;1.20;;
21546;SDS011;41275;51.912;4.388;2023-07-13T11:33:53;3.83;;;1.27;;
21546;SDS011;41275;51.912;4.388;2023-07-13T11:39:24;3.70;;;1.03;;
21546;SDS011;41275;51.912;4.388;2023-07-13T11:44:53;4.35;;;0.90;;
21546;SDS011;41275;51.912;4.388;2023-07-13T11:50:20;2.80;;;0.80;;
21546;SDS011;41275;51.912;4.388;2023-07-13T11:55:43;4.63;;;0.80;;
21546;SDS011;41275;51.912;4.388;2023-07-13T12:01:06;4.00;;;1.25;;
21546;SDS011;41275;51.912;4.388;2023-07-13T12:06:32;3.53;;;1.05;;
21546;SDS011;41275;51.912;4.388;2023-07-13T12:11:59;6.40;;;1.20;;
21546;SDS011;41275;51.912;4.388;2023-07-13T12:17:22;5.67;;;0.93;;
21546;SDS011;41275;51.912;4.388;2023-07-13T12:22:46;2.13;;;0.70;;
21546;SDS011;41275;51.912;4.388;2023-07-13T12:28:21;6.65;;;1.08;;
21546;SDS011;41275;51.912;4.388;2023-07-13T12:33:43;2.73;;;0.80;;
21546;SDS011;41275;51.912;4.388;2023-07-13T12:39:13;2.47;;;0.85;;
21546;SDS011;41275;51.912;4.388;2023-07-13T12:44:39;2.80;;;0.83;;
21546;SDS011;41275;51.912;4.388;2023-07-13T12:50:03;2.88;;;1.02;;
21546;SDS011;41275;51.912;4.388;2023-07-13T12:55:27;3.15;;;0.75;;
21546;SDS011;41275;51.912;4.388;2023-07-13T13:00:50;3.30;;;0.60;;
21546;SDS011;41275;51.912;4.388;2023-07-13T13:11:42;1.60;;;0.63;;
21546;SDS011;41275;51.912;4.388;2023-07-13T13:17:04;0.98;;;0.40;;
21546;SDS011;41275;51.912;4.388;2023-07-13T13:22:53;2.13;;;0.60;;
21546;SDS011;41275;51.912;4.388;2023-07-13T13:28:21;1.48;;;0.65;;
21546;SDS011;41275;51.912;4.388;2023-07-13T13:33:43;2.17;;;0.73;;
21546;SDS011;41275;51.912;4.388;2023-07-13T13:39:40;2.00;;;0.60;;
21546;SDS011;41275;51.912;4.388;2023-07-13T13:44:55;1.42;;;0.57;;
21546;SDS011;41275;51.912;4.388;2023-07-13T13:50:21;2.40;;;0.70;;
21546;SDS011;41275;51.912;4.388;2023-07-13T13:55:45;2.55;;;0.60;;
21546;SDS011;41275;51.912;4.388;2023-07-13T14:01:12;2.63;;;0.70;;
21546;SDS011;41275;51.912;4.388;2023-07-13T14:06:37;1.27;;;0.47;;
21546;SDS011;41275;51.912;4.388;2023-07-13T14:11:58;2.53;;;0.70;;
21546;SDS011;41275;51.912;4.388;2023-07-13T14:17:24;1.40;;;0.60;;
21546;SDS011;41275;51.912;4.388;2023-07-13T14:22:48;2.13;;;0.60;;
21546;SDS011;41275;51.912;4.388;2023-07-13T14:33:47;1.63;;;0.57;;
21546;SDS011;41275;51.912;4.388;2023-07-13T14:39:13;3.07;;;0.70;;
21546;SDS011;41275;51.912;4.388;2023-07-13T14:44:37;1.27;;;0.63;;
21546;SDS011;41275;51.912;4.388;2023-07-13T14:49:59;2.75;;;0.73;;
21546;SDS011;41275;51.912;4.388;2023-07-13T14:55:20;1.65;;;0.50;;
21546;SDS011;41275;51.912;4.388;2023-07-13T15:00:42;4.60;;;1.13;;
21546;SDS011;41275;51.912;4.388;2023-07-13T15:06:04;3.03;;;0.68;;
21546;SDS011;41275;51.912;4.388;2023-07-13T15:11:25;2.45;;;0.82;;
21546;SDS011;41275;51.912;4.388;2023-07-13T15:16:48;3.10;;;0.70;;
21546;SDS011;41275;51.912;4.388;2023-07-13T15:22:11;3.17;;;0.80;;
21546;SDS011;41275;51.912;4.388;2023-07-13T15:27:32;2.08;;;0.60;;
21546;SDS011;41275;51.912;4.388;2023-07-13T15:32:54;1.93;;;0.80;;
21546;SDS011;41275;51.912;4.388;2023-07-13T15:38:18;3.22;;;0.95;;
21546;SDS011;41275;51.912;4.388;2023-07-13T15:43:42;3.50;;;0.90;;
21546;SDS011;41275;51.912;4.388;2023-07-13T15:49:04;3.60;;;0.93;;
21546;SDS011;41275;51.912;4.388;2023-07-13T15:54:30;3.40;;;1.20;;
21546;SDS011;41275;51.912;4.388;2023-07-13T15:59:51;3.87;;;0.70;;
21546;SDS011;41275;51.912;4.388;2023-07-13T16:05:12;5.22;;;1.13;;
21546;SDS011;41275;51.912;4.388;2023-07-13T16:10:35;2.42;;;0.60;;
21546;SDS011;41275;51.912;4.388;2023-07-13T16:15:59;2.53;;;0.73;;
21546;SDS011;41275;51.912;4.388;2023-07-13T16:21:21;2.83;;;0.80;;
21546;SDS011;41275;51.912;4.388;2023-07-13T16:26:50;2.87;;;1.00;;
21546;SDS011;41275;51.912;4.388;2023-07-13T16:32:13;3.03;;;0.80;;
21546;SDS011;41275;51.912;4.388;2023-07-13T16:37:35;6.03;;;1.17;;
21546;SDS011;41275;51.912;4.388;2023-07-13T16:42:57;2.97;;;0.77;;
21546;SDS011;41275;51.912;4.388;2023-07-13T16:48:21;4.10;;;0.70;;
21546;SDS011;41275;51.912;4.388;2023-07-13T16:53:45;4.57;;;0.70;;
21546;SDS011;41275;51.912;4.388;2023-07-13T16:59:12;3.30;;;0.73;;
21546;SDS011;41275;51.912;4.388;2023-07-13T17:04:35;5.10;;;1.00;;
21546;SDS011;41275;51.912;4.388;2023-07-13T17:09:57;4.17;;;0.80;;
21546;SDS011;41275;51.912;4.388;2023-07-13T17:15:20;3.47;;;1.10;;
21546;SDS011;41275;51.912;4.388;2023-07-13T17:20:45;2.10;;;0.65;;
21546;SDS011;41275;51.912;4.388;2023-07-13T17:26:08;1.87;;;0.70;;
21546;SDS011;41275;51.912;4.388;2023-07-13T17:31:30;5.03;;;0.88;;
21546;SDS011;41275;51.912;4.388;2023-07-13T17:36:51;1.63;;;0.47;;
21546;SDS011;41275;51.912;4.388;2023-07-13T17:42:12;2.00;;;0.80;;
21546;SDS011;41275;51.912;4.388;2023-07-13T17:47:34;3.60;;;0.93;;
21546;SDS011;41275;51.912;4.388;2023-07-13T17:52:56;4.70;;;0.80;;
21546;SDS011;41275;51.912;4.388;2023-07-13T17:58:17;2.20;;;0.70;;
21546;SDS011;41275;51.912;4.388;2023-07-13T18:03:42;4.47;;;0.90;;
21546;SDS011;41275;51.912;4.388;2023-07-13T18:09:16;3.95;;;0.70;;
21546;SDS011;41275;51.912;4.388;2023-07-13T18:14:39;2.97;;;0.70;;
21546;SDS011;41275;51.912;4.388;2023-07-13T18:20:00;2.47;;;0.77;;
21546;SDS011;41275;51.912;4.388;2023-07-13T18:25:28;1.73;;;0.47;;
21546;SDS011;41275;51.912;4.388;2023-07-13T18:30:54;3.30;;;0.97;;
21546;SDS011;41275;51.912;4.388;2023-07-13T18:36:17;5.67;;;0.87;;
21546;SDS011;41275;51.912;4.388;2023-07-13T18:41:38;4.05;;;0.75;;
21546;SDS011;41275;51.912;4.388;2023-07-13T18:47:00;3.78;;;0.73;;
21546;SDS011;41275;51.912;4.388;2023-07-13T18:52:21;3.30;;;1.27;;
21546;SDS011;41275;51.912;4.388;2023-07-13T18:57:44;4.63;;;1.00;;
21546;SDS011;41275;51.912;4.388;2023-07-13T19:03:13;6.93;;;2.15;;
21546;SDS011;41275;51.912;4.388;2023-07-13T19:08:37;1.65;;;0.63;;
21546;SDS011;41275;51.912;4.388;2023-07-13T19:14:01;4.35;;;0.98;;
21546;SDS011;41275;51.912;4.388;2023-07-13T19:19:23;3.67;;;1.63;;
21546;SDS011;41275;51.912;4.388;2023-07-13T19:24:44;4.80;;;0.73;;
21546;SDS011;41275;51.912;4.388;2023-07-13T19:30:08;1.97;;;0.83;;
21546;SDS011;41275;51.912;4.388;2023-07-13T19:35:31;1.95;;;0.75;;
21546;SDS011;41275;51.912;4.388;2023-07-13T19:40:54;4.60;;;0.73;;
21546;SDS011;41275;51.912;4.388;2023-07-13T19:46:20;2.47;;;0.70;;
21546;SDS011;41275;51.912;4.388;2023-07-13T19:52:04;5.00;;;0.88;;
21546;SDS011;41275;51.912;4.388;2023-07-13T19:57:32;2.50;;;0.70;;
21546;SDS011;41275;51.912;4.388;2023-07-13T20:02:54;1.38;;;0.63;;
21546;SDS011;41275;51.912;4.388;2023-07-13T20:08:17;2.28;;;0.68;;
21546;SDS011;41275;51.912;4.388;2023-07-13T20:13:41;3.50;;;0.80;;
21546;SDS011;41275;51.912;4.388;2023-07-13T20:19:02;2.50;;;0.80;;
21546;SDS011;41275;51.912;4.388;2023-07-13T20:24:23;4.47;;;0.80;;
21546;SDS011;41275;51.912;4.388;2023-07-13T20:29:45;3.53;;;0.73;;
21546;SDS011;41275;51.912;4.388;2023-07-13T20:35:24;3.47;;;0.77;;
21546;SDS011;41275;51.912;4.388;2023-07-13T20:40:48;3.38;;;0.70;;
21546;SDS011;41275;51.912;4.388;2023-07-13T20:46:13;2.80;;;0.80;;
21546;SDS011;41275;51.912;4.388;2023-07-13T20:51:37;4.38;;;1.05;;
21546;SDS011;41275;51.912;4.388;2023-07-13T20:56:59;3.33;;;0.87;;
21546;SDS011;41275;51.912;4.388;2023-07-13T21:07:43;4.38;;;1.17;;
21546;SDS011;41275;51.912;4.388;2023-07-13T21:13:05;3.90;;;1.10;;
21546;SDS011;41275;51.912;4.388;2023-07-13T21:18:28;7.32;;;1.58;;
21546;SDS011;41275;51.912;4.388;2023-07-13T21:23:49;4.65;;;1.33;;
21546;SDS011;41275;51.912;4.388;2023-07-13T21:29:12;6.35;;;1.20;;
21546;SDS011;41275;51.912;4.388;2023-07-13T21:34:33;3.85;;;1.30;;
21546;SDS011;41275;51.912;4.388;2023-07-13T21:39:54;5.57;;;1.20;;
21546;SDS011;41275;51.912;4.388;2023-07-13T21:45:17;3.17;;;1.20;;
21546;SDS011;41275;51.912;4.388;2023-07-13T21:50:42;3.17;;;0.95;;
21546;SDS011;41275;51.912;4.388;2023-07-13T21:56:08;6.80;;;1.63;;
21546;SDS011;41275;51.912;4.388;2023-07-13T22:01:31;6.10;;;1.25;;
21546;SDS011;41275;51.912;4.388;2023-07-13T22:06:55;5.13;;;1.42;;
21546;SDS011;41275;51.912;4.388;2023-07-13T22:12:17;4.20;;;1.33;;
21546;SDS011;41275;51.912;4.388;2023-07-13T22:17:41;3.38;;;0.90;;
21546;SDS011;41275;51.912;4.388;2023-07-13T22:28:41;5.47;;;1.60;;
21546;SDS011;41275;51.912;4.388;2023-07-13T22:34:03;7.20;;;1.48;;
21546;SDS011;41275;51.912;4.388;2023-07-13T22:39:27;5.43;;;1.20;;
21546;SDS011;41275;51.912;4.388;2023-07-13T22:44:51;6.45;;;1.30;;
21546;SDS011;41275;51.912;4.388;2023-07-13T22:50:13;4.20;;;1.05;;
21546;SDS011;41275;51.912;4.388;2023-07-13T22:55:36;4.97;;;1.00;;
21546;SDS011;41275;51.912;4.388;2023-07-13T23:00:58;5.85;;;1.33;;
21546;SDS011;41275;51.912;4.388;2023-07-13T23:06:22;5.68;;;1.30;;
21546;SDS011;41275;51.912;4.388;2023-07-13T23:11:48;4.90;;;1.30;;
21546;SDS011;41275;51.912;4.388;2023-07-13T23:17:10;4.38;;;1.30;;
21546;SDS011;41275;51.912;4.388;2023-07-13T23:22:32;3.10;;;1.00;;
21546;SDS011;41275;51.912;4.388;2023-07-13T23:27:53;6.25;;;1.00;;
21546;SDS011;41275;51.912;4.388;2023-07-13T23:33:23;4.43;;;1.20;;
21546;SDS011;41275;51.912;4.388;2023-07-13T23:38:47;5.13;;;1.13;;
21546;SDS011;41275;51.912;4.388;2023-07-13T23:44:09;4.35;;;1.25;;
21546;SDS011;41275;51.912;4.388;2023-07-13T23:49:30;4.23;;;1.23;;
21546;SDS011;41275;51.912;4.388;2023-07-13T23:54:53;3.40;;;1.13;;
